createdAt,value
2022-10-05T06:05:47.709Z,12.45
2022-10-05T06:08:59.663Z,14.50
2022-10-05T06:12:14.840Z,13.27
2022-10-05T06:20:27.811Z,11.70
2022-10-05T06:24:09.223Z,10.77
2022-10-05T06:27:35.665Z,9.13
2022-10-05T06:30:55.265Z,9.90
2022-10-05T06:34:17.925Z,10.57
2022-10-05T06:37:43.758Z,8.90
2022-10-05T06:41:12.840Z,8.80
2022-10-05T06:44:48.850Z,8.23
2022-10-05T06:48:40.648Z,8.93
2022-10-05T06:52:09.303Z,9.52
2022-10-05T06:55:34.849Z,9.77
2022-10-05T06:59:00.498Z,13.55
2022-10-05T07:02:29.081Z,15.80
2022-10-05T07:05:45.850Z,17.13
2022-10-05T07:09:19.933Z,14.23
2022-10-05T07:12:57.870Z,12.43
2022-10-05T07:16:32.911Z,11.85
2022-10-05T07:19:41.210Z,11.57
2022-10-05T07:23:17.045Z,11.27
2022-10-05T07:26:34.656Z,10.48
2022-10-05T07:30:02.977Z,9.80
2022-10-05T07:33:34.243Z,10.15
2022-10-05T07:37:06.752Z,11.50
2022-10-05T07:40:26.472Z,11.37
2022-10-05T07:44:20.108Z,9.20
2022-10-05T07:47:38.739Z,9.95
2022-10-05T07:51:05.899Z,10.75
2022-10-05T07:54:28.315Z,10.20
2022-10-05T07:57:50.444Z,10.77
2022-10-05T08:01:21.975Z,11.60
2022-10-05T08:04:42.368Z,12.02
2022-10-05T08:07:59.312Z,11.02
2022-10-05T08:11:14.686Z,10.43
2022-10-05T08:14:33.830Z,12.00
2022-10-05T08:17:46.089Z,12.02
2022-10-05T08:20:57.616Z,10.57
2022-10-05T08:24:11.403Z,11.48
2022-10-05T08:27:46.965Z,13.70
2022-10-05T08:31:19.226Z,13.63
2022-10-05T08:34:40.456Z,12.77
2022-10-05T08:37:44.872Z,11.55
2022-10-05T08:45:26.968Z,9.07
2022-10-05T08:48:46.028Z,8.53
2022-10-05T08:52:12.694Z,8.02
2022-10-05T08:55:28.891Z,8.88
2022-10-05T08:58:49.539Z,7.90
2022-10-05T09:02:19.774Z,8.37
2022-10-05T09:05:52.165Z,7.43
2022-10-05T09:09:20.832Z,7.95
2022-10-05T09:12:33.048Z,8.63
2022-10-05T09:16:01.712Z,8.48
2022-10-05T09:19:34.750Z,8.27
2022-10-05T09:22:58.621Z,8.87
2022-10-05T09:26:47.768Z,8.20
2022-10-05T09:30:16.969Z,8.38
2022-10-05T09:33:49.598Z,7.72
2022-10-05T09:37:26.615Z,7.83
2022-10-05T09:41:08.540Z,7.73
2022-10-05T09:44:20.945Z,7.25
2022-10-05T09:48:00.003Z,8.57
2022-10-05T09:51:50.315Z,8.10
2022-10-05T09:55:31.008Z,8.77
2022-10-05T09:59:08.907Z,10.13
2022-10-05T10:02:32.235Z,10.00
2022-10-05T10:06:03.882Z,10.00
2022-10-05T10:09:21.182Z,8.77
2022-10-05T10:12:30.198Z,8.43
2022-10-05T10:15:38.460Z,7.70
2022-10-05T10:19:01.078Z,8.50
2022-10-05T10:22:17.748Z,8.70
2022-10-05T10:26:01.806Z,8.48
2022-10-05T10:29:32.001Z,8.20
2022-10-05T10:33:02.263Z,7.07
2022-10-05T10:36:17.062Z,7.43
2022-10-05T10:39:38.909Z,9.02
2022-10-05T10:42:41.833Z,7.70
2022-10-05T10:46:24.178Z,11.93
2022-10-05T10:49:57.775Z,9.03
2022-10-05T10:53:28.011Z,8.10
2022-10-05T10:57:10.772Z,7.70
2022-10-05T11:00:55.724Z,8.15
2022-10-05T11:04:13.934Z,7.67
2022-10-05T11:07:45.012Z,8.07
2022-10-05T11:11:03.554Z,7.43
2022-10-05T11:14:44.267Z,8.70
2022-10-05T11:18:10.070Z,8.60
2022-10-05T11:21:30.743Z,7.90
2022-10-05T11:24:39.034Z,8.93
2022-10-05T11:28:18.975Z,8.98
2022-10-05T11:31:40.706Z,8.73
2022-10-05T11:35:04.858Z,8.52
2022-10-05T11:38:18.157Z,7.70
2022-10-05T11:41:33.043Z,7.23
2022-10-05T11:45:01.984Z,6.80
2022-10-05T11:48:29.375Z,5.90
2022-10-05T11:51:41.890Z,6.37
2022-10-05T11:55:16.655Z,4.23
2022-10-05T11:58:38.980Z,4.03
2022-10-05T12:02:01.859Z,4.22
2022-10-05T12:05:29.254Z,4.10
2022-10-05T12:08:45.980Z,3.90
2022-10-05T12:12:10.952Z,3.40
2022-10-05T12:15:31.927Z,3.00
2022-10-05T12:18:39.855Z,3.15
2022-10-05T12:22:04.452Z,3.45
2022-10-05T12:25:27.813Z,3.70
2022-10-05T12:28:53.899Z,4.03
2022-10-05T12:32:13.765Z,3.50
2022-10-05T12:35:49.653Z,3.37
2022-10-05T12:38:56.275Z,3.83
2022-10-05T12:42:22.034Z,3.53
2022-10-05T12:45:54.876Z,3.53
2022-10-05T12:49:34.173Z,3.47
2022-10-05T12:52:50.454Z,3.22
2022-10-05T12:56:04.726Z,3.53
2022-10-05T12:59:30.977Z,2.53
2022-10-05T13:02:45.712Z,3.57
2022-10-05T13:06:08.357Z,3.30
2022-10-05T13:09:29.911Z,3.58
2022-10-05T13:12:59.921Z,3.70
2022-10-05T13:16:17.244Z,3.40
2022-10-05T13:19:34.905Z,4.10
2022-10-05T13:22:48.817Z,4.57
2022-10-05T13:26:13.016Z,3.50
2022-10-05T13:29:40.515Z,3.30
2022-10-05T13:33:00.964Z,3.42
2022-10-05T13:36:43.004Z,3.93
2022-10-05T13:40:16.681Z,3.50
2022-10-05T13:47:36.292Z,3.33
2022-10-05T13:51:31.812Z,3.22
2022-10-05T13:55:27.198Z,3.30
2022-10-05T13:59:03.602Z,3.17
2022-10-05T14:02:34.781Z,3.10
2022-10-05T14:05:59.173Z,3.85
2022-10-05T14:09:33.803Z,2.67
2022-10-05T14:12:43.750Z,2.70
2022-10-05T14:16:12.721Z,2.97
2022-10-05T14:19:34.147Z,4.00
2022-10-05T14:23:24.863Z,3.15
2022-10-05T14:26:35.573Z,2.67
2022-10-05T14:30:03.867Z,3.03
2022-10-05T14:33:18.952Z,2.90
2022-10-05T14:36:44.794Z,3.08
2022-10-05T14:40:03.353Z,5.65
2022-10-05T14:43:17.979Z,8.43
2022-10-05T14:46:29.336Z,13.63
2022-10-05T14:50:11.805Z,11.17
2022-10-05T14:53:25.889Z,7.87
2022-10-05T14:56:56.591Z,4.35
2022-10-05T15:00:19.993Z,4.53
2022-10-05T15:03:42.232Z,3.70
2022-10-05T15:06:58.459Z,3.50
2022-10-05T15:10:33.698Z,2.90
2022-10-05T15:13:49.740Z,3.83
2022-10-05T15:17:04.896Z,3.58
2022-10-05T15:20:27.810Z,4.03
2022-10-05T15:23:51.978Z,3.60
2022-10-05T15:27:34.868Z,3.78
2022-10-05T15:31:07.217Z,3.80
2022-10-05T15:34:38.391Z,4.03
2022-10-05T15:38:05.799Z,3.40
2022-10-05T15:41:25.201Z,3.33
2022-10-05T15:45:33.119Z,3.70
2022-10-05T15:49:23.242Z,4.80
2022-10-05T15:52:44.932Z,5.30
2022-10-05T15:55:52.896Z,5.43
2022-10-05T15:59:18.806Z,3.53
2022-10-05T16:02:30.015Z,4.82
2022-10-05T16:10:43.157Z,5.68
2022-10-05T16:14:31.774Z,6.93
2022-10-05T16:17:54.899Z,6.67
2022-10-05T16:21:33.655Z,7.55
2022-10-05T16:25:58.748Z,10.45
2022-10-05T16:29:55.604Z,9.20
2022-10-05T16:33:18.037Z,10.33
2022-10-05T16:37:07.056Z,10.30
2022-10-05T16:45:44.797Z,10.45
2022-10-05T16:53:30.642Z,9.67
2022-10-05T16:57:07.987Z,10.43
2022-10-05T17:00:26.127Z,11.68
2022-10-05T17:04:13.157Z,9.60
2022-10-05T17:07:53.108Z,10.02
2022-10-05T17:11:41.904Z,9.63
2022-10-05T17:15:32.368Z,11.33
2022-10-05T17:19:01.027Z,12.32
2022-10-05T17:22:40.348Z,14.87
2022-10-05T17:25:57.873Z,19.60
2022-10-05T17:29:30.021Z,17.77
2022-10-05T17:33:13.706Z,15.60
2022-10-05T17:36:22.835Z,15.13
2022-10-05T17:39:59.820Z,12.02
2022-10-05T17:44:21.990Z,11.12
2022-10-05T17:48:19.221Z,11.47
2022-10-05T17:52:16.705Z,15.20
2022-10-05T17:55:53.653Z,23.42
2022-10-05T17:59:18.799Z,17.62
2022-10-05T18:02:58.486Z,17.77
2022-10-05T18:06:25.160Z,14.53
2022-10-05T18:10:30.030Z,26.17
2022-10-05T18:13:56.019Z,23.00
2022-10-05T18:17:45.592Z,24.83
2022-10-05T18:21:15.827Z,23.30
2022-10-05T18:24:55.949Z,14.90
2022-10-05T18:28:18.856Z,14.10
2022-10-05T18:31:34.394Z,13.75
2022-10-05T18:35:03.247Z,14.60
2022-10-05T18:38:53.938Z,15.15
2022-10-05T18:42:29.124Z,17.17
2022-10-05T18:46:13.091Z,16.53
2022-10-05T18:50:25.691Z,16.65
2022-10-05T18:53:58.884Z,15.38
2022-10-05T18:57:32.698Z,15.77
2022-10-05T19:01:12.388Z,14.27
2022-10-05T19:04:53.236Z,15.60
2022-10-05T19:13:16.772Z,14.52
2022-10-05T19:16:31.793Z,14.68
2022-10-05T19:19:44.753Z,14.00
2022-10-05T19:22:48.544Z,12.93
2022-10-05T19:26:15.950Z,14.55
2022-10-05T19:29:47.710Z,15.18
2022-10-05T19:33:24.257Z,14.00
2022-10-05T19:36:56.726Z,12.83
2022-10-05T19:40:27.599Z,11.70
2022-10-05T19:44:06.968Z,12.25
2022-10-05T19:47:37.543Z,13.77
2022-10-05T19:50:59.999Z,13.05
2022-10-05T19:54:21.894Z,12.60
2022-10-05T19:57:35.115Z,12.23
2022-10-05T20:00:47.226Z,9.82
2022-10-05T20:03:58.132Z,7.72
2022-10-05T20:07:02.523Z,8.07
2022-10-05T20:10:30.832Z,8.67
2022-10-05T20:13:36.777Z,8.20
2022-10-05T20:18:09.061Z,9.18
2022-10-05T20:22:00.107Z,8.70
2022-10-05T20:25:14.251Z,8.82
2022-10-05T20:28:33.725Z,10.27
2022-10-05T20:31:37.266Z,18.87
2022-10-05T20:34:42.929Z,10.95
2022-10-05T20:38:11.660Z,8.45
2022-10-05T20:41:16.634Z,7.57
2022-10-05T20:44:21.033Z,10.07
2022-10-05T20:47:28.196Z,9.80
2022-10-05T20:51:08.791Z,18.30
2022-10-05T20:54:11.936Z,13.18
2022-10-05T20:57:27.912Z,11.25
2022-10-05T21:00:54.922Z,11.13
2022-10-05T21:03:59.685Z,11.10
2022-10-05T21:07:07.144Z,11.35
2022-10-05T21:10:11.741Z,13.13
2022-10-05T21:13:18.579Z,16.05
2022-10-05T21:16:25.040Z,14.97
2022-10-05T21:19:29.538Z,14.50
2022-10-05T21:22:32.888Z,15.85
2022-10-05T21:25:37.155Z,18.00
2022-10-05T21:28:41.813Z,16.08
2022-10-05T21:31:45.935Z,16.77
2022-10-05T21:34:53.191Z,14.40
2022-10-05T21:37:58.018Z,12.55
2022-10-05T21:41:05.236Z,11.15
2022-10-05T21:44:32.128Z,9.88
2022-10-05T21:47:35.225Z,9.23
2022-10-05T21:50:39.924Z,9.90
2022-10-05T21:53:49.815Z,9.40
2022-10-05T21:56:55.804Z,9.32
2022-10-05T22:00:06.653Z,9.43
2022-10-05T22:03:10.237Z,9.47
2022-10-05T22:06:13.627Z,9.83
2022-10-05T22:09:18.898Z,10.00
2022-10-05T22:12:24.474Z,9.63
2022-10-05T22:15:31.380Z,9.68
2022-10-05T22:18:35.343Z,9.23
2022-10-05T22:21:41.911Z,10.13
2022-10-05T22:24:44.881Z,9.73
2022-10-05T22:27:49.937Z,9.63
2022-10-05T22:30:53.352Z,9.80
2022-10-05T22:33:56.470Z,10.90
2022-10-05T22:37:03.213Z,10.20
2022-10-05T22:40:13.173Z,10.45
2022-10-05T22:43:20.047Z,11.57
2022-10-05T22:46:23.502Z,10.80
2022-10-05T22:49:26.881Z,10.37
2022-10-05T22:52:29.632Z,11.40
2022-10-05T22:55:34.176Z,11.43
2022-10-05T22:58:37.732Z,11.27
2022-10-05T23:01:40.845Z,11.20
2022-10-05T23:04:43.476Z,11.57
2022-10-05T23:07:47.216Z,11.83
2022-10-05T23:10:52.623Z,11.15
2022-10-05T23:13:57.021Z,12.02
2022-10-05T23:17:00.054Z,12.02
2022-10-05T23:20:05.837Z,11.67
2022-10-05T23:23:08.703Z,11.73
2022-10-05T23:26:12.368Z,11.35
2022-10-05T23:29:15.575Z,11.95
2022-10-05T23:32:18.859Z,11.35
2022-10-05T23:35:22.065Z,11.27
2022-10-05T23:38:26.801Z,11.63
2022-10-05T23:41:34.641Z,11.15
